sensor_id;sensor_type;location;lat;lon;timestamp;temperature;humidity
336;DHT22;156;48.738;9.228;2023-04-01T00:02:26;7.70;43.30
336;DHT22;156;48.738;9.228;2023-04-01T00:04:52;7.70;45.40
336;DHT22;156;48.738;9.228;2023-04-01T00:07:19;7.70;45.10
336;DHT22;156;48.738;9.228;2023-04-01T00:09:46;7.70;47.30
336;DHT22;156;48.738;9.228;2023-04-01T00:12:13;7.70;46.70
336;DHT22;156;48.738;9.228;2023-04-01T00:14:41;7.70;50.90
336;DHT22;156;48.738;9.228;2023-04-01T00:17:08;7.70;51.10
336;DHT22;156;48.738;9.228;2023-04-01T00:19:35;7.70;49.00
336;DHT22;156;48.738;9.228;2023-04-01T00:22:02;7.70;52.60
336;DHT22;156;48.738;9.228;2023-04-01T00:24:29;7.70;51.40
336;DHT22;156;48.738;9.228;2023-04-01T00:26:56;7.70;47.90
336;DHT22;156;48.738;9.228;2023-04-01T00:29:23;7.70;48.40
336;DHT22;156;48.738;9.228;2023-04-01T00:31:56;7.70;48.50
336;DHT22;156;48.738;9.228;2023-04-01T00:34:23;7.70;46.30
336;DHT22;156;48.738;9.228;2023-04-01T00:36:51;7.70;45.80
336;DHT22;156;48.738;9.228;2023-04-01T00:39:18;7.70;44.80
336;DHT22;156;48.738;9.228;2023-04-01T00:41:45;7.70;44.90
336;DHT22;156;48.738;9.228;2023-04-01T00:44:15;7.70;43.10
336;DHT22;156;48.738;9.228;2023-04-01T00:46:43;7.70;43.80
336;DHT22;156;48.738;9.228;2023-04-01T00:49:13;7.70;46.20
336;DHT22;156;48.738;9.228;2023-04-01T00:51:41;7.70;45.30
336;DHT22;156;48.738;9.228;2023-04-01T00:54:09;7.70;48.00
336;DHT22;156;48.738;9.228;2023-04-01T00:56:38;7.70;53.70
336;DHT22;156;48.738;9.228;2023-04-01T00:59:10;7.70;52.70
336;DHT22;156;48.738;9.228;2023-04-01T01:01:38;7.70;53.10
336;DHT22;156;48.738;9.228;2023-04-01T01:04:05;7.70;51.40
336;DHT22;156;48.738;9.228;2023-04-01T01:06:42;7.70;48.30
336;DHT22;156;48.738;9.228;2023-04-01T01:09:25;7.70;51.50
336;DHT22;156;48.738;9.228;2023-04-01T01:11:58;7.70;52.40
336;DHT22;156;48.738;9.228;2023-04-01T01:14:36;7.80;48.80
336;DHT22;156;48.738;9.228;2023-04-01T01:17:11;7.70;53.80
336;DHT22;156;48.738;9.228;2023-04-01T01:22:57;7.70;62.00
336;DHT22;156;48.738;9.228;2023-04-01T01:25:38;7.70;61.60
336;DHT22;156;48.738;9.228;2023-04-01T01:28:21;7.60;58.00
336;DHT22;156;48.738;9.228;2023-04-01T01:30:57;7.60;57.40
336;DHT22;156;48.738;9.228;2023-04-01T01:33:49;7.60;57.80
336;DHT22;156;48.738;9.228;2023-04-01T01:36:21;7.70;63.10
336;DHT22;156;48.738;9.228;2023-04-01T01:38:48;7.60;61.50
336;DHT22;156;48.738;9.228;2023-04-01T01:41:17;7.60;62.30
336;DHT22;156;48.738;9.228;2023-04-01T01:43:48;7.60;62.80
336;DHT22;156;48.738;9.228;2023-04-01T01:46:19;7.60;55.80
336;DHT22;156;48.738;9.228;2023-04-01T01:48:48;7.60;57.40
336;DHT22;156;48.738;9.228;2023-04-01T01:51:16;7.60;63.00
336;DHT22;156;48.738;9.228;2023-04-01T01:53:44;7.60;67.00
336;DHT22;156;48.738;9.228;2023-04-01T01:56:12;7.50;73.30
336;DHT22;156;48.738;9.228;2023-04-01T01:58:43;7.50;86.10
336;DHT22;156;48.738;9.228;2023-04-01T02:01:13;7.40;86.50
336;DHT22;156;48.738;9.228;2023-04-01T02:03:42;7.40;86.90
336;DHT22;156;48.738;9.228;2023-04-01T02:06:14;7.40;89.10
336;DHT22;156;48.738;9.228;2023-04-01T02:08:45;7.40;89.50
336;DHT22;156;48.738;9.228;2023-04-01T02:11:16;7.40;82.00
336;DHT22;156;48.738;9.228;2023-04-01T02:13:49;7.40;84.60
336;DHT22;156;48.738;9.228;2023-04-01T02:16:21;7.40;82.50
336;DHT22;156;48.738;9.228;2023-04-01T02:18:50;7.50;75.00
336;DHT22;156;48.738;9.228;2023-04-01T02:21:22;7.40;75.40
336;DHT22;156;48.738;9.228;2023-04-01T02:23:52;7.40;71.90
336;DHT22;156;48.738;9.228;2023-04-01T02:26:21;7.30;70.60
336;DHT22;156;48.738;9.228;2023-04-01T02:28:49;7.30;72.50
336;DHT22;156;48.738;9.228;2023-04-01T02:31:17;7.30;64.10
336;DHT22;156;48.738;9.228;2023-04-01T02:33:45;7.30;64.00
336;DHT22;156;48.738;9.228;2023-04-01T02:36:13;7.30;55.00
336;DHT22;156;48.738;9.228;2023-04-01T02:38:42;7.30;52.50
336;DHT22;156;48.738;9.228;2023-04-01T02:41:11;7.30;52.90
336;DHT22;156;48.738;9.228;2023-04-01T02:43:38;7.30;52.10
336;DHT22;156;48.738;9.228;2023-04-01T02:46:05;7.30;55.30
336;DHT22;156;48.738;9.228;2023-04-01T02:48:32;7.30;49.50
336;DHT22;156;48.738;9.228;2023-04-01T02:50:59;7.30;48.10
336;DHT22;156;48.738;9.228;2023-04-01T02:53:26;7.30;43.80
336;DHT22;156;48.738;9.228;2023-04-01T02:55:53;7.30;41.80
336;DHT22;156;48.738;9.228;2023-04-01T02:58:22;7.30;37.40
336;DHT22;156;48.738;9.228;2023-04-01T03:00:49;7.30;36.70
336;DHT22;156;48.738;9.228;2023-04-01T03:03:16;7.30;31.40
336;DHT22;156;48.738;9.228;2023-04-01T03:05:43;7.30;32.00
336;DHT22;156;48.738;9.228;2023-04-01T03:08:10;7.30;29.50
336;DHT22;156;48.738;9.228;2023-04-01T03:10:37;7.20;26.90
336;DHT22;156;48.738;9.228;2023-04-01T03:13:04;7.20;25.30
336;DHT22;156;48.738;9.228;2023-04-01T03:15:33;7.20;28.30
336;DHT22;156;48.738;9.228;2023-04-01T03:17:59;7.20;28.00
336;DHT22;156;48.738;9.228;2023-04-01T03:20:26;7.20;28.20
336;DHT22;156;48.738;9.228;2023-04-01T03:22:53;7.20;26.70
336;DHT22;156;48.738;9.228;2023-04-01T03:25:20;7.20;25.70
336;DHT22;156;48.738;9.228;2023-04-01T03:27:47;7.20;24.50
336;DHT22;156;48.738;9.228;2023-04-01T03:30:14;7.20;21.50
336;DHT22;156;48.738;9.228;2023-04-01T03:32:42;7.20;24.30
336;DHT22;156;48.738;9.228;2023-04-01T03:35:09;7.10;23.80
336;DHT22;156;48.738;9.228;2023-04-01T03:37:36;7.10;22.30
336;DHT22;156;48.738;9.228;2023-04-01T03:40:04;7.20;23.30
336;DHT22;156;48.738;9.228;2023-04-01T03:42:31;7.20;17.70
336;DHT22;156;48.738;9.228;2023-04-01T03:44:58;7.20;20.70
336;DHT22;156;48.738;9.228;2023-04-01T03:47:25;7.20;18.10
336;DHT22;156;48.738;9.228;2023-04-01T03:49:53;7.20;19.50
336;DHT22;156;48.738;9.228;2023-04-01T03:52:20;7.20;16.90
336;DHT22;156;48.738;9.228;2023-04-01T03:54:47;7.20;17.60
336;DHT22;156;48.738;9.228;2023-04-01T03:57:14;7.10;20.40
336;DHT22;156;48.738;9.228;2023-04-01T03:59:41;7.20;15.60
336;DHT22;156;48.738;9.228;2023-04-01T04:02:08;7.10;14.20
336;DHT22;156;48.738;9.228;2023-04-01T04:04:35;7.10;13.40
336;DHT22;156;48.738;9.228;2023-04-01T04:07:03;7.00;12.60
336;DHT22;156;48.738;9.228;2023-04-01T04:09:30;7.00;15.00
336;DHT22;156;48.738;9.228;2023-04-01T04:11:57;6.90;18.20
336;DHT22;156;48.738;9.228;2023-04-01T04:14:24;6.90;19.80
336;DHT22;156;48.738;9.228;2023-04-01T04:16:51;6.80;18.50
336;DHT22;156;48.738;9.228;2023-04-01T04:19:18;6.80;19.80
336;DHT22;156;48.738;9.228;2023-04-01T04:21:45;6.80;20.20
336;DHT22;156;48.738;9.228;2023-04-01T04:24:13;6.80;20.90
336;DHT22;156;48.738;9.228;2023-04-01T04:26:40;6.70;20.60
336;DHT22;156;48.738;9.228;2023-04-01T04:29:07;6.70;23.80
336;DHT22;156;48.738;9.228;2023-04-01T04:31:33;6.80;20.70
336;DHT22;156;48.738;9.228;2023-04-01T04:34:00;6.70;20.60
336;DHT22;156;48.738;9.228;2023-04-01T04:36:27;6.70;23.20
336;DHT22;156;48.738;9.228;2023-04-01T04:38:54;6.70;23.90
336;DHT22;156;48.738;9.228;2023-04-01T04:41:22;6.70;24.80
336;DHT22;156;48.738;9.228;2023-04-01T04:43:50;6.60;27.20
336;DHT22;156;48.738;9.228;2023-04-01T04:46:18;6.60;28.40
336;DHT22;156;48.738;9.228;2023-04-01T04:48:45;6.60;29.80
336;DHT22;156;48.738;9.228;2023-04-01T04:51:14;6.60;29.60
336;DHT22;156;48.738;9.228;2023-04-01T04:53:42;6.70;29.50
336;DHT22;156;48.738;9.228;2023-04-01T04:56:09;6.70;33.00
336;DHT22;156;48.738;9.228;2023-04-01T04:58:38;6.60;36.00
336;DHT22;156;48.738;9.228;2023-04-01T05:01:06;6.60;39.20
336;DHT22;156;48.738;9.228;2023-04-01T05:03:33;6.60;42.30
336;DHT22;156;48.738;9.228;2023-04-01T05:06:00;6.70;42.40
336;DHT22;156;48.738;9.228;2023-04-01T05:08:27;6.70;41.90
336;DHT22;156;48.738;9.228;2023-04-01T05:10:54;6.70;42.90
336;DHT22;156;48.738;9.228;2023-04-01T05:13:21;6.70;43.70
336;DHT22;156;48.738;9.228;2023-04-01T05:15:49;6.70;47.20
336;DHT22;156;48.738;9.228;2023-04-01T05:18:16;6.70;45.90
336;DHT22;156;48.738;9.228;2023-04-01T05:20:46;6.80;51.00
336;DHT22;156;48.738;9.228;2023-04-01T05:23:14;6.70;51.80
336;DHT22;156;48.738;9.228;2023-04-01T05:25:41;6.80;51.80
336;DHT22;156;48.738;9.228;2023-04-01T05:28:08;6.80;49.30
336;DHT22;156;48.738;9.228;2023-04-01T05:30:35;6.90;47.70
336;DHT22;156;48.738;9.228;2023-04-01T05:33:03;6.90;41.60
336;DHT22;156;48.738;9.228;2023-04-01T05:35:30;6.90;40.90
336;DHT22;156;48.738;9.228;2023-04-01T05:37:56;7.00;38.40
336;DHT22;156;48.738;9.228;2023-04-01T05:40:23;7.00;29.80
336;DHT22;156;48.738;9.228;2023-04-01T05:42:50;7.00;28.30
336;DHT22;156;48.738;9.228;2023-04-01T05:45:17;7.10;23.40
336;DHT22;156;48.738;9.228;2023-04-01T05:47:44;7.20;20.70
336;DHT22;156;48.738;9.228;2023-04-01T05:50:12;7.20;17.80
336;DHT22;156;48.738;9.228;2023-04-01T05:52:39;7.20;12.90
336;DHT22;156;48.738;9.228;2023-04-01T05:55:06;7.30;12.60
336;DHT22;156;48.738;9.228;2023-04-01T05:57:33;7.30;8.80
336;DHT22;156;48.738;9.228;2023-04-01T06:00:00;7.30;4.50
336;DHT22;156;48.738;9.228;2023-04-01T06:02:27;7.40;4.90
336;DHT22;156;48.738;9.228;2023-04-01T06:05:02;7.40;4.40
336;DHT22;156;48.738;9.228;2023-04-01T06:07:31;7.40;1.00
336;DHT22;156;48.738;9.228;2023-04-01T06:09:59;7.50;1.00
336;DHT22;156;48.738;9.228;2023-04-01T06:12:39;7.50;1.00
336;DHT22;156;48.738;9.228;2023-04-01T06:15:22;7.60;1.00
336;DHT22;156;48.738;9.228;2023-04-01T06:18:07;7.60;1.00
336;DHT22;156;48.738;9.228;2023-04-01T06:20:42;7.70;1.00
336;DHT22;156;48.738;9.228;2023-04-01T06:23:40;7.70;1.00
336;DHT22;156;48.738;9.228;2023-04-01T06:26:19;7.80;1.00
336;DHT22;156;48.738;9.228;2023-04-01T06:29:19;7.80;1.00
336;DHT22;156;48.738;9.228;2023-04-01T06:32:07;7.80;1.00
336;DHT22;156;48.738;9.228;2023-04-01T06:35:02;7.90;1.00
336;DHT22;156;48.738;9.228;2023-04-01T06:38:00;7.90;1.00
336;DHT22;156;48.738;9.228;2023-04-01T06:40:44;7.90;1.00
336;DHT22;156;48.738;9.228;2023-04-01T06:43:21;8.00;1.00
336;DHT22;156;48.738;9.228;2023-04-01T06:45:55;8.00;1.00
336;DHT22;156;48.738;9.228;2023-04-01T06:48:41;8.00;1.00
336;DHT22;156;48.738;9.228;2023-04-01T06:51:20;8.00;1.00
336;DHT22;156;48.738;9.228;2023-04-01T06:53:54;8.00;1.00
336;DHT22;156;48.738;9.228;2023-04-01T06:56:26;8.00;1.00
336;DHT22;156;48.738;9.228;2023-04-01T06:58:55;8.10;1.00
336;DHT22;156;48.738;9.228;2023-04-01T07:01:26;8.00;1.00
336;DHT22;156;48.738;9.228;2023-04-01T07:03:58;8.00;1.00
336;DHT22;156;48.738;9.228;2023-04-01T07:06:28;8.00;1.00
336;DHT22;156;48.738;9.228;2023-04-01T07:08:59;8.10;1.00
336;DHT22;156;48.738;9.228;2023-04-01T07:11:33;8.10;1.00
336;DHT22;156;48.738;9.228;2023-04-01T07:14:03;8.10;1.00
336;DHT22;156;48.738;9.228;2023-04-01T07:16:33;8.10;1.00
336;DHT22;156;48.738;9.228;2023-04-01T07:19:05;8.10;1.00
336;DHT22;156;48.738;9.228;2023-04-01T07:21:36;8.00;1.00
336;DHT22;156;48.738;9.228;2023-04-01T07:24:10;8.10;1.00
336;DHT22;156;48.738;9.228;2023-04-01T07:26:40;8.10;1.00
336;DHT22;156;48.738;9.228;2023-04-01T07:29:11;8.10;1.00
336;DHT22;156;48.738;9.228;2023-04-01T07:32:05;8.20;1.00
336;DHT22;156;48.738;9.228;2023-04-01T07:34:37;8.20;1.00
336;DHT22;156;48.738;9.228;2023-04-01T07:37:12;8.10;1.00
336;DHT22;156;48.738;9.228;2023-04-01T07:39:45;8.10;1.00
336;DHT22;156;48.738;9.228;2023-04-01T07:42:23;8.10;1.00
336;DHT22;156;48.738;9.228;2023-04-01T07:44:59;8.20;1.00
336;DHT22;156;48.738;9.228;2023-04-01T07:47:41;8.10;1.00
336;DHT22;156;48.738;9.228;2023-04-01T07:50:17;8.10;1.00
336;DHT22;156;48.738;9.228;2023-04-01T07:52:50;8.20;1.00
336;DHT22;156;48.738;9.228;2023-04-01T07:55:24;8.20;1.00
336;DHT22;156;48.738;9.228;2023-04-01T07:58:03;8.30;1.00
336;DHT22;156;48.738;9.228;2023-04-01T08:00:39;8.20;1.00
336;DHT22;156;48.738;9.228;2023-04-01T08:03:21;8.30;1.00
336;DHT22;156;48.738;9.228;2023-04-01T08:05:55;8.30;1.00
336;DHT22;156;48.738;9.228;2023-04-01T08:08:33;8.30;1.00
336;DHT22;156;48.738;9.228;2023-04-01T08:11:10;8.40;1.00
336;DHT22;156;48.738;9.228;2023-04-01T08:13:45;8.40;1.00
336;DHT22;156;48.738;9.228;2023-04-01T08:16:22;8.30;1.00
336;DHT22;156;48.738;9.228;2023-04-01T08:18:57;8.30;1.00
336;DHT22;156;48.738;9.228;2023-04-01T08:21:29;8.40;1.00
336;DHT22;156;48.738;9.228;2023-04-01T08:24:04;8.40;1.00
336;DHT22;156;48.738;9.228;2023-04-01T08:26:35;8.40;1.00
336;DHT22;156;48.738;9.228;2023-04-01T08:29:11;8.40;1.00
336;DHT22;156;48.738;9.228;2023-04-01T08:31:43;8.40;1.00
336;DHT22;156;48.738;9.228;2023-04-01T08:34:16;8.40;1.00
336;DHT22;156;48.738;9.228;2023-04-01T08:36:47;8.50;1.00
336;DHT22;156;48.738;9.228;2023-04-01T08:39:19;8.40;1.00
336;DHT22;156;48.738;9.228;2023-04-01T08:42:10;8.30;1.00
336;DHT22;156;48.738;9.228;2023-04-01T08:47:52;8.30;1.00
336;DHT22;156;48.738;9.228;2023-04-01T08:50:31;8.20;1.00
336;DHT22;156;48.738;9.228;2023-04-01T08:53:06;8.30;1.00
336;DHT22;156;48.738;9.228;2023-04-01T08:55:44;8.30;4.90
336;DHT22;156;48.738;9.228;2023-04-01T09:01:39;8.00;9.90
336;DHT22;156;48.738;9.228;2023-04-01T09:07:29;7.90;18.20
336;DHT22;156;48.738;9.228;2023-04-01T09:10:32;7.90;21.60
336;DHT22;156;48.738;9.228;2023-04-01T09:13:29;7.90;13.10
336;DHT22;156;48.738;9.228;2023-04-01T09:16:21;8.00;10.30
336;DHT22;156;48.738;9.228;2023-04-01T09:19:04;8.10;16.40
336;DHT22;156;48.738;9.228;2023-04-01T09:21:56;8.10;9.00
336;DHT22;156;48.738;9.228;2023-04-01T09:24:54;8.20;1.00
336;DHT22;156;48.738;9.228;2023-04-01T09:27:30;8.30;1.00
336;DHT22;156;48.738;9.228;2023-04-01T09:30:27;8.40;4.10
336;DHT22;156;48.738;9.228;2023-04-01T09:33:40;8.60;1.00
336;DHT22;156;48.738;9.228;2023-04-01T09:36:20;8.60;1.00
336;DHT22;156;48.738;9.228;2023-04-01T09:38:56;8.70;1.00
336;DHT22;156;48.738;9.228;2023-04-01T09:41:29;8.70;1.00
336;DHT22;156;48.738;9.228;2023-04-01T09:44:01;8.90;1.00
336;DHT22;156;48.738;9.228;2023-04-01T09:46:39;8.80;1.00
336;DHT22;156;48.738;9.228;2023-04-01T09:49:27;8.60;1.00
336;DHT22;156;48.738;9.228;2023-04-01T09:52:08;8.70;1.00
336;DHT22;156;48.738;9.228;2023-04-01T09:54:53;8.60;1.00
336;DHT22;156;48.738;9.228;2023-04-01T10:01:01;8.50;1.00
336;DHT22;156;48.738;9.228;2023-04-01T10:16:15;8.60;1.00
336;DHT22;156;48.738;9.228;2023-04-01T10:22:05;8.50;1.00
336;DHT22;156;48.738;9.228;2023-04-01T10:27:55;8.60;1.00
336;DHT22;156;48.738;9.228;2023-04-01T10:31:11;8.70;1.00
336;DHT22;156;48.738;9.228;2023-04-01T10:36:53;9.00;1.00
336;DHT22;156;48.738;9.228;2023-04-01T10:39:35;8.90;1.00
336;DHT22;156;48.738;9.228;2023-04-01T10:42:27;8.80;1.00
336;DHT22;156;48.738;9.228;2023-04-01T10:51:29;9.20;1.00
336;DHT22;156;48.738;9.228;2023-04-01T10:57:26;9.40;1.00
336;DHT22;156;48.738;9.228;2023-04-01T11:00:17;9.50;1.00
336;DHT22;156;48.738;9.228;2023-04-01T11:03:16;9.70;1.00
336;DHT22;156;48.738;9.228;2023-04-01T11:12:34;9.50;1.00
336;DHT22;156;48.738;9.228;2023-04-01T11:15:26;9.30;1.00
336;DHT22;156;48.738;9.228;2023-04-01T11:24:39;9.20;1.00
336;DHT22;156;48.738;9.228;2023-04-01T11:30:22;9.60;1.00
336;DHT22;156;48.738;9.228;2023-04-01T11:32:54;9.50;1.00
336;DHT22;156;48.738;9.228;2023-04-01T11:35:57;9.60;1.00
336;DHT22;156;48.738;9.228;2023-04-01T11:38:54;9.70;1.00
336;DHT22;156;48.738;9.228;2023-04-01T11:41:32;9.60;1.00
336;DHT22;156;48.738;9.228;2023-04-01T11:44:13;9.60;1.00
336;DHT22;156;48.738;9.228;2023-04-01T11:47:07;9.70;1.00
336;DHT22;156;48.738;9.228;2023-04-01T11:49:46;9.70;1.00
336;DHT22;156;48.738;9.228;2023-04-01T11:52:25;9.40;1.00
336;DHT22;156;48.738;9.228;2023-04-01T11:55:06;9.50;1.00
336;DHT22;156;48.738;9.228;2023-04-01T11:57:51;9.50;1.00
336;DHT22;156;48.738;9.228;2023-04-01T12:03:28;9.40;1.00
336;DHT22;156;48.738;9.228;2023-04-01T12:06:05;9.40;1.00
336;DHT22;156;48.738;9.228;2023-04-01T12:08:41;9.50;1.00
336;DHT22;156;48.738;9.228;2023-04-01T12:11:17;9.40;1.00
336;DHT22;156;48.738;9.228;2023-04-01T12:13:52;9.60;1.00
336;DHT22;156;48.738;9.228;2023-04-01T12:16:29;9.60;1.00
336;DHT22;156;48.738;9.228;2023-04-01T12:19:03;9.50;1.00
336;DHT22;156;48.738;9.228;2023-04-01T12:21:36;9.40;1.00
336;DHT22;156;48.738;9.228;2023-04-01T12:24:33;9.50;1.00
336;DHT22;156;48.738;9.228;2023-04-01T12:30:12;9.60;1.00
336;DHT22;156;48.738;9.228;2023-04-01T12:32:46;9.60;1.00
336;DHT22;156;48.738;9.228;2023-04-01T12:35:21;9.70;1.00
336;DHT22;156;48.738;9.228;2023-04-01T12:38:02;9.70;1.00
336;DHT22;156;48.738;9.228;2023-04-01T12:40:45;10.00;1.00
336;DHT22;156;48.738;9.228;2023-04-01T12:43:54;10.10;1.00
336;DHT22;156;48.738;9.228;2023-04-01T12:46:30;10.00;1.00
336;DHT22;156;48.738;9.228;2023-04-01T12:49:17;10.10;1.00
336;DHT22;156;48.738;9.228;2023-04-01T12:51:59;10.10;1.00
336;DHT22;156;48.738;9.228;2023-04-01T12:55:00;10.20;1.00
336;DHT22;156;48.738;9.228;2023-04-01T12:58:00;10.10;1.00
336;DHT22;156;48.738;9.228;2023-04-01T13:00:52;10.10;1.00
336;DHT22;156;48.738;9.228;2023-04-01T13:06:29;10.10;1.00
336;DHT22;156;48.738;9.228;2023-04-01T13:09:06;10.20;1.00
336;DHT22;156;48.738;9.228;2023-04-01T13:11:52;9.90;1.00
336;DHT22;156;48.738;9.228;2023-04-01T13:14:38;10.20;1.00
336;DHT22;156;48.738;9.228;2023-04-01T13:17:15;10.20;1.00
336;DHT22;156;48.738;9.228;2023-04-01T13:19:50;10.20;1.00
336;DHT22;156;48.738;9.228;2023-04-01T13:22:23;10.20;1.00
336;DHT22;156;48.738;9.228;2023-04-01T13:24:59;10.30;1.00
336;DHT22;156;48.738;9.228;2023-04-01T13:27:33;10.10;1.00
336;DHT22;156;48.738;9.228;2023-04-01T13:30:16;10.00;1.00
336;DHT22;156;48.738;9.228;2023-04-01T13:32:48;9.90;1.00
336;DHT22;156;48.738;9.228;2023-04-01T13:35:24;9.80;1.00
336;DHT22;156;48.738;9.228;2023-04-01T13:38:15;9.80;1.00
336;DHT22;156;48.738;9.228;2023-04-01T13:40:49;9.90;1.00
336;DHT22;156;48.738;9.228;2023-04-01T13:43:22;10.00;1.00
336;DHT22;156;48.738;9.228;2023-04-01T13:46:08;10.00;1.00
336;DHT22;156;48.738;9.228;2023-04-01T13:48:51;10.00;1.00
336;DHT22;156;48.738;9.228;2023-04-01T13:51:47;10.20;1.00
336;DHT22;156;48.738;9.228;2023-04-01T13:54:42;10.10;1.00
336;DHT22;156;48.738;9.228;2023-04-01T13:57:26;9.90;1.00
336;DHT22;156;48.738;9.228;2023-04-01T14:00:22;9.80;1.00
336;DHT22;156;48.738;9.228;2023-04-01T14:03:00;9.80;1.00
336;DHT22;156;48.738;9.228;2023-04-01T14:05:50;9.90;1.00
336;DHT22;156;48.738;9.228;2023-04-01T14:08:36;10.00;1.00
336;DHT22;156;48.738;9.228;2023-04-01T14:11:15;10.00;1.00
336;DHT22;156;48.738;9.228;2023-04-01T14:13:50;10.10;1.00
336;DHT22;156;48.738;9.228;2023-04-01T14:19:29;10.30;1.00
336;DHT22;156;48.738;9.228;2023-04-01T14:22:05;10.30;1.00
336;DHT22;156;48.738;9.228;2023-04-01T14:24:50;10.40;1.00
336;DHT22;156;48.738;9.228;2023-04-01T14:27:41;10.10;1.00
336;DHT22;156;48.738;9.228;2023-04-01T14:33:28;10.00;1.00
336;DHT22;156;48.738;9.228;2023-04-01T14:36:25;10.00;1.00
336;DHT22;156;48.738;9.228;2023-04-01T14:39:03;10.00;1.00
336;DHT22;156;48.738;9.228;2023-04-01T14:41:46;9.90;1.00
336;DHT22;156;48.738;9.228;2023-04-01T14:44:44;10.00;1.00
336;DHT22;156;48.738;9.228;2023-04-01T14:47:28;10.00;1.00
336;DHT22;156;48.738;9.228;2023-04-01T14:50:08;9.80;1.00
336;DHT22;156;48.738;9.228;2023-04-01T14:52:38;9.80;1.00
336;DHT22;156;48.738;9.228;2023-04-01T14:55:20;9.90;1.00
336;DHT22;156;48.738;9.228;2023-04-01T14:58:07;10.00;1.00
336;DHT22;156;48.738;9.228;2023-04-01T15:00:50;10.10;1.00
336;DHT22;156;48.738;9.228;2023-04-01T15:03:23;10.00;1.00
336;DHT22;156;48.738;9.228;2023-04-01T15:05:56;10.00;1.00
336;DHT22;156;48.738;9.228;2023-04-01T15:08:29;10.00;1.00
336;DHT22;156;48.738;9.228;2023-04-01T15:11:23;10.10;1.00
336;DHT22;156;48.738;9.228;2023-04-01T15:16:48;10.10;1.00
336;DHT22;156;48.738;9.228;2023-04-01T15:19:24;9.90;1.00
336;DHT22;156;48.738;9.228;2023-04-01T15:25:05;9.80;1.00
336;DHT22;156;48.738;9.228;2023-04-01T15:27:43;9.80;1.00
336;DHT22;156;48.738;9.228;2023-04-01T15:30:31;9.90;1.00
336;DHT22;156;48.738;9.228;2023-04-01T15:33:36;10.00;1.00
336;DHT22;156;48.738;9.228;2023-04-01T15:36:16;10.00;1.00
336;DHT22;156;48.738;9.228;2023-04-01T15:38:49;10.10;1.00
336;DHT22;156;48.738;9.228;2023-04-01T15:41:23;10.00;1.00
336;DHT22;156;48.738;9.228;2023-04-01T15:43:52;10.00;1.00
336;DHT22;156;48.738;9.228;2023-04-01T15:46:41;10.00;1.00
336;DHT22;156;48.738;9.228;2023-04-01T15:49:19;10.10;1.00
336;DHT22;156;48.738;9.228;2023-04-01T15:51:56;10.10;1.00
336;DHT22;156;48.738;9.228;2023-04-01T15:54:47;10.00;1.00
336;DHT22;156;48.738;9.228;2023-04-01T15:57:27;10.00;1.00
336;DHT22;156;48.738;9.228;2023-04-01T16:00:19;10.00;1.00
336;DHT22;156;48.738;9.228;2023-04-01T16:02:52;9.80;1.00
336;DHT22;156;48.738;9.228;2023-04-01T16:05:27;9.80;1.00
336;DHT22;156;48.738;9.228;2023-04-01T16:08:21;9.80;1.00
336;DHT22;156;48.738;9.228;2023-04-01T16:10:59;9.80;1.00
336;DHT22;156;48.738;9.228;2023-04-01T16:13:42;9.80;1.00
336;DHT22;156;48.738;9.228;2023-04-01T16:16:20;9.90;1.00
336;DHT22;156;48.738;9.228;2023-04-01T16:19:03;9.90;1.00
336;DHT22;156;48.738;9.228;2023-04-01T16:21:37;9.90;1.00
336;DHT22;156;48.738;9.228;2023-04-01T16:24:13;9.80;1.00
336;DHT22;156;48.738;9.228;2023-04-01T16:26:45;9.80;1.00
336;DHT22;156;48.738;9.228;2023-04-01T16:29:22;9.70;1.00
336;DHT22;156;48.738;9.228;2023-04-01T16:31:54;9.70;1.00
336;DHT22;156;48.738;9.228;2023-04-01T16:34:31;9.60;1.00
336;DHT22;156;48.738;9.228;2023-04-01T16:37:07;9.60;1.00
336;DHT22;156;48.738;9.228;2023-04-01T16:39:44;9.60;1.00
336;DHT22;156;48.738;9.228;2023-04-01T16:42:22;9.70;1.00
336;DHT22;156;48.738;9.228;2023-04-01T16:44:53;9.60;1.00
336;DHT22;156;48.738;9.228;2023-04-01T16:47:23;9.60;1.00
336;DHT22;156;48.738;9.228;2023-04-01T16:49:59;9.70;1.00
336;DHT22;156;48.738;9.228;2023-04-01T16:52:53;9.70;1.00
336;DHT22;156;48.738;9.228;2023-04-01T16:55:34;9.60;1.00
336;DHT22;156;48.738;9.228;2023-04-01T16:58:02;9.70;1.00
336;DHT22;156;48.738;9.228;2023-04-01T17:00:36;9.70;1.00
336;DHT22;156;48.738;9.228;2023-04-01T17:03:12;9.80;1.00
336;DHT22;156;48.738;9.228;2023-04-01T17:05:55;9.70;1.00
336;DHT22;156;48.738;9.228;2023-04-01T17:08:37;9.80;1.00
336;DHT22;156;48.738;9.228;2023-04-01T17:11:14;9.80;1.00
336;DHT22;156;48.738;9.228;2023-04-01T17:13:47;9.90;1.00
336;DHT22;156;48.738;9.228;2023-04-01T17:19:46;9.80;1.00
336;DHT22;156;48.738;9.228;2023-04-01T17:22:25;9.80;1.00
336;DHT22;156;48.738;9.228;2023-04-01T17:27:59;9.80;1.00
336;DHT22;156;48.738;9.228;2023-04-01T17:30:33;9.70;1.00
336;DHT22;156;48.738;9.228;2023-04-01T17:33:24;9.70;1.00
336;DHT22;156;48.738;9.228;2023-04-01T17:35:58;9.70;1.00
336;DHT22;156;48.738;9.228;2023-04-01T17:38:39;9.70;1.00
336;DHT22;156;48.738;9.228;2023-04-01T17:41:16;9.70;1.00
336;DHT22;156;48.738;9.228;2023-04-01T17:43:50;9.50;1.00
336;DHT22;156;48.738;9.228;2023-04-01T17:46:30;9.50;1.00
336;DHT22;156;48.738;9.228;2023-04-01T17:49:15;9.40;1.00
336;DHT22;156;48.738;9.228;2023-04-01T17:51:52;9.40;1.00
336;DHT22;156;48.738;9.228;2023-04-01T17:54:29;9.40;1.00
336;DHT22;156;48.738;9.228;2023-04-01T17:57:08;9.50;1.00
336;DHT22;156;48.738;9.228;2023-04-01T17:59:38;9.50;1.00
336;DHT22;156;48.738;9.228;2023-04-01T18:02:17;9.50;1.00
336;DHT22;156;48.738;9.228;2023-04-01T18:08:03;9.50;1.00
336;DHT22;156;48.738;9.228;2023-04-01T18:10:40;9.50;1.00
336;DHT22;156;48.738;9.228;2023-04-01T18:13:29;9.50;1.00
336;DHT22;156;48.738;9.228;2023-04-01T18:16:08;9.50;1.00
336;DHT22;156;48.738;9.228;2023-04-01T18:18:50;9.40;1.00
336;DHT22;156;48.738;9.228;2023-04-01T18:21:27;9.40;1.00
336;DHT22;156;48.738;9.228;2023-04-01T18:23:58;9.30;1.00
336;DHT22;156;48.738;9.228;2023-04-01T18:26:32;9.30;1.00
336;DHT22;156;48.738;9.228;2023-04-01T18:29:04;9.30;1.00
336;DHT22;156;48.738;9.228;2023-04-01T18:31:41;9.20;1.00
336;DHT22;156;48.738;9.228;2023-04-01T18:34:15;9.00;1.00
336;DHT22;156;48.738;9.228;2023-04-01T18:36:46;9.00;1.00
336;DHT22;156;48.738;9.228;2023-04-01T18:39:17;8.90;1.00
336;DHT22;156;48.738;9.228;2023-04-01T18:42:05;8.90;1.00
336;DHT22;156;48.738;9.228;2023-04-01T18:44:41;8.80;1.00
336;DHT22;156;48.738;9.228;2023-04-01T18:47:20;8.80;1.00
336;DHT22;156;48.738;9.228;2023-04-01T18:49:54;8.80;1.00
336;DHT22;156;48.738;9.228;2023-04-01T18:52:25;8.70;1.00
336;DHT22;156;48.738;9.228;2023-04-01T18:55:20;8.70;1.00
336;DHT22;156;48.738;9.228;2023-04-01T18:57:51;8.70;1.00
336;DHT22;156;48.738;9.228;2023-04-01T19:00:21;8.70;1.00
336;DHT22;156;48.738;9.228;2023-04-01T19:02:52;8.60;1.00
336;DHT22;156;48.738;9.228;2023-04-01T19:05:29;8.40;1.00
336;DHT22;156;48.738;9.228;2023-04-01T19:08:14;8.40;1.00
336;DHT22;156;48.738;9.228;2023-04-01T19:10:48;8.40;1.00
336;DHT22;156;48.738;9.228;2023-04-01T19:13:23;8.30;1.00
336;DHT22;156;48.738;9.228;2023-04-01T19:15:58;8.30;1.00
336;DHT22;156;48.738;9.228;2023-04-01T19:21:25;8.20;1.00
336;DHT22;156;48.738;9.228;2023-04-01T19:26:56;8.10;1.00
336;DHT22;156;48.738;9.228;2023-04-01T19:29:38;8.10;1.00
336;DHT22;156;48.738;9.228;2023-04-01T19:32:14;8.10;1.00
336;DHT22;156;48.738;9.228;2023-04-01T19:34:58;8.10;1.00
336;DHT22;156;48.738;9.228;2023-04-01T19:37:33;8.20;1.00
336;DHT22;156;48.738;9.228;2023-04-01T19:40:17;8.20;1.00
336;DHT22;156;48.738;9.228;2023-04-01T19:42:52;8.10;1.00